sensor_id;sensor_type;location;lat;lon;timestamp;temperature;humidity
22742;DHT22;11538;48.884;8.696;2023-06-14T00:01:58;17.00;99.90
22742;DHT22;11538;48.884;8.696;2023-06-14T00:04:25;17.10;99.90
22742;DHT22;11538;48.884;8.696;2023-06-14T00:06:53;17.00;99.90
22742;DHT22;11538;48.884;8.696;2023-06-14T00:09:20;17.00;99.90
22742;DHT22;11538;48.884;8.696;2023-06-14T00:11:47;17.00;99.90
22742;DHT22;11538;48.884;8.696;2023-06-14T00:14:14;17.00;99.90
22742;DHT22;11538;48.884;8.696;2023-06-14T00:16:41;16.90;99.90
22742;DHT22;11538;48.884;8.696;2023-06-14T00:19:09;16.90;99.90
22742;DHT22;11538;48.884;8.696;2023-06-14T00:21:38;16.90;99.90
22742;DHT22;11538;48.884;8.696;2023-06-14T00:24:05;16.90;99.90
22742;DHT22;11538;48.884;8.696;2023-06-14T00:26:32;16.90;99.90
22742;DHT22;11538;48.884;8.696;2023-06-14T00:28:59;16.80;99.90
22742;DHT22;11538;48.884;8.696;2023-06-14T00:31:26;16.80;99.90
22742;DHT22;11538;48.884;8.696;2023-06-14T00:33:53;16.70;99.90
22742;DHT22;11538;48.884;8.696;2023-06-14T00:36:20;16.70;99.90
22742;DHT22;11538;48.884;8.696;2023-06-14T00:38:47;16.70;99.90
22742;DHT22;11538;48.884;8.696;2023-06-14T00:41:14;16.60;99.90
22742;DHT22;11538;48.884;8.696;2023-06-14T00:43:41;16.60;99.90
22742;DHT22;11538;48.884;8.696;2023-06-14T00:46:08;16.60;99.90
22742;DHT22;11538;48.884;8.696;2023-06-14T00:48:36;16.50;99.90
22742;DHT22;11538;48.884;8.696;2023-06-14T00:51:04;16.50;99.90
22742;DHT22;11538;48.884;8.696;2023-06-14T00:53:32;16.40;99.90
22742;DHT22;11538;48.884;8.696;2023-06-14T00:56:03;16.20;99.90
22742;DHT22;11538;48.884;8.696;2023-06-14T00:58:31;16.10;99.90
22742;DHT22;11538;48.884;8.696;2023-06-14T01:00:59;16.00;99.90
22742;DHT22;11538;48.884;8.696;2023-06-14T01:03:25;15.90;99.90
22742;DHT22;11538;48.884;8.696;2023-06-14T01:06:18;15.90;99.90
22742;DHT22;11538;48.884;8.696;2023-06-14T01:09:15;15.80;99.90
22742;DHT22;11538;48.884;8.696;2023-06-14T01:12:03;15.80;99.90
22742;DHT22;11538;48.884;8.696;2023-06-14T01:14:37;15.70;99.90
22742;DHT22;11538;48.884;8.696;2023-06-14T01:17:08;15.60;99.90
22742;DHT22;11538;48.884;8.696;2023-06-14T01:19:43;15.50;99.90
22742;DHT22;11538;48.884;8.696;2023-06-14T01:22:12;15.50;99.90
22742;DHT22;11538;48.884;8.696;2023-06-14T01:24:39;15.50;99.90
22742;DHT22;11538;48.884;8.696;2023-06-14T01:27:06;15.50;99.90
22742;DHT22;11538;48.884;8.696;2023-06-14T01:29:34;15.50;99.90
22742;DHT22;11538;48.884;8.696;2023-06-14T01:32:03;15.60;99.90
22742;DHT22;11538;48.884;8.696;2023-06-14T01:34:31;15.60;99.90
22742;DHT22;11538;48.884;8.696;2023-06-14T01:37:00;15.50;99.90
22742;DHT22;11538;48.884;8.696;2023-06-14T01:39:29;15.50;99.90
22742;DHT22;11538;48.884;8.696;2023-06-14T01:41:58;15.50;99.90
22742;DHT22;11538;48.884;8.696;2023-06-14T01:44:27;15.50;99.90
22742;DHT22;11538;48.884;8.696;2023-06-14T01:46:56;15.50;99.90
22742;DHT22;11538;48.884;8.696;2023-06-14T01:49:24;15.50;99.90
22742;DHT22;11538;48.884;8.696;2023-06-14T01:51:53;15.50;99.90
22742;DHT22;11538;48.884;8.696;2023-06-14T01:54:20;15.40;99.90
22742;DHT22;11538;48.884;8.696;2023-06-14T01:56:48;15.50;99.90
22742;DHT22;11538;48.884;8.696;2023-06-14T01:59:15;15.40;99.90
22742;DHT22;11538;48.884;8.696;2023-06-14T02:01:43;15.40;99.90
22742;DHT22;11538;48.884;8.696;2023-06-14T02:04:12;15.30;99.90
22742;DHT22;11538;48.884;8.696;2023-06-14T02:06:40;15.20;99.90
22742;DHT22;11538;48.884;8.696;2023-06-14T02:09:06;15.10;99.90
22742;DHT22;11538;48.884;8.696;2023-06-14T02:11:33;15.00;99.90
22742;DHT22;11538;48.884;8.696;2023-06-14T02:14:00;14.90;99.90
22742;DHT22;11538;48.884;8.696;2023-06-14T02:16:28;14.90;99.90
22742;DHT22;11538;48.884;8.696;2023-06-14T02:18:56;14.90;99.90
22742;DHT22;11538;48.884;8.696;2023-06-14T02:21:23;14.90;99.90
22742;DHT22;11538;48.884;8.696;2023-06-14T02:23:50;14.90;99.90
22742;DHT22;11538;48.884;8.696;2023-06-14T02:26:17;15.00;99.90
22742;DHT22;11538;48.884;8.696;2023-06-14T02:28:44;15.00;99.90
22742;DHT22;11538;48.884;8.696;2023-06-14T02:31:11;14.90;99.90
22742;DHT22;11538;48.884;8.696;2023-06-14T02:33:39;14.80;99.90
22742;DHT22;11538;48.884;8.696;2023-06-14T02:36:06;14.70;99.90
22742;DHT22;11538;48.884;8.696;2023-06-14T02:38:33;14.70;99.90
22742;DHT22;11538;48.884;8.696;2023-06-14T02:40:59;14.80;99.90
22742;DHT22;11538;48.884;8.696;2023-06-14T02:43:29;14.80;99.90
22742;DHT22;11538;48.884;8.696;2023-06-14T02:45:56;14.80;99.90
22742;DHT22;11538;48.884;8.696;2023-06-14T02:48:23;14.70;99.90
22742;DHT22;11538;48.884;8.696;2023-06-14T02:50:50;14.70;99.90
22742;DHT22;11538;48.884;8.696;2023-06-14T02:53:17;14.70;99.90
22742;DHT22;11538;48.884;8.696;2023-06-14T02:55:44;14.70;99.90
22742;DHT22;11538;48.884;8.696;2023-06-14T02:58:11;14.70;99.90
22742;DHT22;11538;48.884;8.696;2023-06-14T03:00:38;14.70;99.90
22742;DHT22;11538;48.884;8.696;2023-06-14T03:03:05;14.70;99.90
22742;DHT22;11538;48.884;8.696;2023-06-14T03:05:44;14.70;99.90
22742;DHT22;11538;48.884;8.696;2023-06-14T03:08:14;14.70;99.90
22742;DHT22;11538;48.884;8.696;2023-06-14T03:10:43;14.60;99.90
22742;DHT22;11538;48.884;8.696;2023-06-14T03:13:10;14.60;99.90
22742;DHT22;11538;48.884;8.696;2023-06-14T03:15:38;14.50;99.90
22742;DHT22;11538;48.884;8.696;2023-06-14T03:18:08;14.50;99.90
22742;DHT22;11538;48.884;8.696;2023-06-14T03:20:36;14.50;99.90
22742;DHT22;11538;48.884;8.696;2023-06-14T03:23:03;14.50;99.90
22742;DHT22;11538;48.884;8.696;2023-06-14T03:25:30;14.50;99.90
22742;DHT22;11538;48.884;8.696;2023-06-14T03:27:58;14.50;99.90
22742;DHT22;11538;48.884;8.696;2023-06-14T03:30:25;14.40;99.90
22742;DHT22;11538;48.884;8.696;2023-06-14T03:32:52;14.40;99.90
22742;DHT22;11538;48.884;8.696;2023-06-14T03:35:19;14.40;99.90
22742;DHT22;11538;48.884;8.696;2023-06-14T03:37:46;14.30;99.90
22742;DHT22;11538;48.884;8.696;2023-06-14T03:40:17;14.20;99.90
22742;DHT22;11538;48.884;8.696;2023-06-14T03:42:46;14.30;99.90
22742;DHT22;11538;48.884;8.696;2023-06-14T03:45:12;14.30;99.90
22742;DHT22;11538;48.884;8.696;2023-06-14T03:47:39;14.40;99.90
22742;DHT22;11538;48.884;8.696;2023-06-14T03:50:06;14.40;99.90
22742;DHT22;11538;48.884;8.696;2023-06-14T03:52:33;14.50;99.90
22742;DHT22;11538;48.884;8.696;2023-06-14T03:55:00;14.40;99.90
22742;DHT22;11538;48.884;8.696;2023-06-14T03:57:30;14.40;99.90
22742;DHT22;11538;48.884;8.696;2023-06-14T03:59:57;14.40;99.90
22742;DHT22;11538;48.884;8.696;2023-06-14T04:02:24;14.40;99.90
22742;DHT22;11538;48.884;8.696;2023-06-14T04:04:51;14.40;99.90
22742;DHT22;11538;48.884;8.696;2023-06-14T04:07:21;14.40;99.90
22742;DHT22;11538;48.884;8.696;2023-06-14T04:09:49;14.30;99.90
22742;DHT22;11538;48.884;8.696;2023-06-14T04:12:16;14.20;99.90
22742;DHT22;11538;48.884;8.696;2023-06-14T04:14:43;14.20;99.90
22742;DHT22;11538;48.884;8.696;2023-06-14T04:17:10;14.20;99.90
22742;DHT22;11538;48.884;8.696;2023-06-14T04:19:37;14.10;99.90
22742;DHT22;11538;48.884;8.696;2023-06-14T04:22:04;14.20;99.90
22742;DHT22;11538;48.884;8.696;2023-06-14T04:24:31;14.20;99.90
22742;DHT22;11538;48.884;8.696;2023-06-14T04:26:59;14.20;99.90
22742;DHT22;11538;48.884;8.696;2023-06-14T04:29:27;14.30;99.90
22742;DHT22;11538;48.884;8.696;2023-06-14T04:31:56;14.30;99.90
22742;DHT22;11538;48.884;8.696;2023-06-14T04:34:28;14.30;99.90
22742;DHT22;11538;48.884;8.696;2023-06-14T04:37:00;14.30;99.90
22742;DHT22;11538;48.884;8.696;2023-06-14T04:39:27;14.30;99.90
22742;DHT22;11538;48.884;8.696;2023-06-14T04:41:54;14.40;99.90
22742;DHT22;11538;48.884;8.696;2023-06-14T04:44:24;14.40;99.90
22742;DHT22;11538;48.884;8.696;2023-06-14T04:46:57;14.40;99.90
22742;DHT22;11538;48.884;8.696;2023-06-14T04:49:25;14.40;99.90
22742;DHT22;11538;48.884;8.696;2023-06-14T04:51:53;14.50;99.90
22742;DHT22;11538;48.884;8.696;2023-06-14T04:54:28;14.50;99.90
22742;DHT22;11538;48.884;8.696;2023-06-14T04:56:58;14.50;99.90
22742;DHT22;11538;48.884;8.696;2023-06-14T04:59:25;14.60;99.90
22742;DHT22;11538;48.884;8.696;2023-06-14T05:01:52;14.60;99.90
22742;DHT22;11538;48.884;8.696;2023-06-14T05:04:20;14.70;99.90
22742;DHT22;11538;48.884;8.696;2023-06-14T05:06:48;14.80;99.90
22742;DHT22;11538;48.884;8.696;2023-06-14T05:09:15;14.90;99.90
22742;DHT22;11538;48.884;8.696;2023-06-14T05:11:46;15.00;99.90
22742;DHT22;11538;48.884;8.696;2023-06-14T05:14:14;15.10;99.90
22742;DHT22;11538;48.884;8.696;2023-06-14T05:16:41;15.20;99.90
22742;DHT22;11538;48.884;8.696;2023-06-14T05:19:08;15.30;99.90
22742;DHT22;11538;48.884;8.696;2023-06-14T05:21:36;15.40;99.90
22742;DHT22;11538;48.884;8.696;2023-06-14T05:24:09;15.40;99.90
22742;DHT22;11538;48.884;8.696;2023-06-14T05:26:36;15.50;99.90
22742;DHT22;11538;48.884;8.696;2023-06-14T05:29:03;15.70;99.90
22742;DHT22;11538;48.884;8.696;2023-06-14T05:31:30;15.70;99.90
22742;DHT22;11538;48.884;8.696;2023-06-14T05:33:57;15.80;99.90
22742;DHT22;11538;48.884;8.696;2023-06-14T05:36:25;15.80;99.90
22742;DHT22;11538;48.884;8.696;2023-06-14T05:38:52;15.90;99.90
22742;DHT22;11538;48.884;8.696;2023-06-14T05:41:27;16.00;99.90
22742;DHT22;11538;48.884;8.696;2023-06-14T05:43:55;16.10;99.90
22742;DHT22;11538;48.884;8.696;2023-06-14T05:46:23;16.20;99.90
22742;DHT22;11538;48.884;8.696;2023-06-14T05:48:55;16.20;99.90
22742;DHT22;11538;48.884;8.696;2023-06-14T05:51:23;16.30;99.90
22742;DHT22;11538;48.884;8.696;2023-06-14T05:53:52;16.40;99.90
22742;DHT22;11538;48.884;8.696;2023-06-14T05:56:19;16.40;99.90
22742;DHT22;11538;48.884;8.696;2023-06-14T05:58:46;16.40;99.90
22742;DHT22;11538;48.884;8.696;2023-06-14T06:01:14;16.50;99.90
22742;DHT22;11538;48.884;8.696;2023-06-14T06:03:41;16.60;99.90
22742;DHT22;11538;48.884;8.696;2023-06-14T06:06:13;16.70;99.90
22742;DHT22;11538;48.884;8.696;2023-06-14T06:08:40;16.80;99.90
22742;DHT22;11538;48.884;8.696;2023-06-14T06:11:07;16.90;99.90
22742;DHT22;11538;48.884;8.696;2023-06-14T06:13:34;17.00;99.90
22742;DHT22;11538;48.884;8.696;2023-06-14T06:16:03;17.10;99.90
22742;DHT22;11538;48.884;8.696;2023-06-14T06:18:30;17.20;99.90
22742;DHT22;11538;48.884;8.696;2023-06-14T06:20:57;17.30;99.90
22742;DHT22;11538;48.884;8.696;2023-06-14T06:23:24;17.40;99.90
22742;DHT22;11538;48.884;8.696;2023-06-14T06:25:51;17.50;99.90
22742;DHT22;11538;48.884;8.696;2023-06-14T06:28:18;17.60;99.90
22742;DHT22;11538;48.884;8.696;2023-06-14T06:30:45;17.70;99.90
22742;DHT22;11538;48.884;8.696;2023-06-14T06:33:12;17.80;99.90
22742;DHT22;11538;48.884;8.696;2023-06-14T06:35:40;17.90;99.90
22742;DHT22;11538;48.884;8.696;2023-06-14T06:38:08;18.00;99.90
22742;DHT22;11538;48.884;8.696;2023-06-14T06:40:36;18.20;99.90
22742;DHT22;11538;48.884;8.696;2023-06-14T06:43:03;18.30;99.90
22742;DHT22;11538;48.884;8.696;2023-06-14T06:45:30;18.30;99.90
22742;DHT22;11538;48.884;8.696;2023-06-14T06:47:57;18.50;99.90
22742;DHT22;11538;48.884;8.696;2023-06-14T06:50:24;18.60;99.90
22742;DHT22;11538;48.884;8.696;2023-06-14T06:52:52;18.70;99.90
22742;DHT22;11538;48.884;8.696;2023-06-14T06:55:20;18.80;99.90
22742;DHT22;11538;48.884;8.696;2023-06-14T06:57:47;18.90;99.90
22742;DHT22;11538;48.884;8.696;2023-06-14T07:00:14;19.00;99.90
22742;DHT22;11538;48.884;8.696;2023-06-14T07:02:42;19.20;99.90
22742;DHT22;11538;48.884;8.696;2023-06-14T07:05:09;19.30;99.90
22742;DHT22;11538;48.884;8.696;2023-06-14T07:07:36;19.40;99.90
22742;DHT22;11538;48.884;8.696;2023-06-14T07:10:04;19.50;99.90
22742;DHT22;11538;48.884;8.696;2023-06-14T07:12:32;19.60;99.90
22742;DHT22;11538;48.884;8.696;2023-06-14T07:15:00;19.70;99.90
22742;DHT22;11538;48.884;8.696;2023-06-14T07:17:27;19.90;99.90
22742;DHT22;11538;48.884;8.696;2023-06-14T07:19:54;20.00;99.90
22742;DHT22;11538;48.884;8.696;2023-06-14T07:22:21;20.10;99.90
22742;DHT22;11538;48.884;8.696;2023-06-14T07:24:48;20.20;99.90
22742;DHT22;11538;48.884;8.696;2023-06-14T07:27:15;20.40;99.90
22742;DHT22;11538;48.884;8.696;2023-06-14T07:29:42;20.50;99.90
22742;DHT22;11538;48.884;8.696;2023-06-14T07:32:09;20.60;99.90
22742;DHT22;11538;48.884;8.696;2023-06-14T07:34:36;20.70;99.90
22742;DHT22;11538;48.884;8.696;2023-06-14T07:37:03;20.90;99.90
22742;DHT22;11538;48.884;8.696;2023-06-14T07:39:30;21.00;99.90
22742;DHT22;11538;48.884;8.696;2023-06-14T07:41:57;21.10;99.90
22742;DHT22;11538;48.884;8.696;2023-06-14T07:44:29;21.20;99.90
22742;DHT22;11538;48.884;8.696;2023-06-14T07:46:57;21.40;99.90
22742;DHT22;11538;48.884;8.696;2023-06-14T07:49:27;21.50;99.90
22742;DHT22;11538;48.884;8.696;2023-06-14T07:51:54;21.60;99.90
22742;DHT22;11538;48.884;8.696;2023-06-14T07:54:25;21.80;99.90
22742;DHT22;11538;48.884;8.696;2023-06-14T07:56:53;21.90;99.90
22742;DHT22;11538;48.884;8.696;2023-06-14T07:59:20;22.00;99.90
22742;DHT22;11538;48.884;8.696;2023-06-14T08:01:46;22.10;99.90
22742;DHT22;11538;48.884;8.696;2023-06-14T08:04:14;22.20;99.90
22742;DHT22;11538;48.884;8.696;2023-06-14T08:06:42;22.40;99.90
22742;DHT22;11538;48.884;8.696;2023-06-14T08:09:13;22.50;99.90
22742;DHT22;11538;48.884;8.696;2023-06-14T08:11:40;22.60;99.90
22742;DHT22;11538;48.884;8.696;2023-06-14T08:14:07;22.80;99.90
22742;DHT22;11538;48.884;8.696;2023-06-14T08:16:33;22.90;99.90
22742;DHT22;11538;48.884;8.696;2023-06-14T08:19:00;23.00;99.90
22742;DHT22;11538;48.884;8.696;2023-06-14T08:21:27;23.20;99.90
22742;DHT22;11538;48.884;8.696;2023-06-14T08:23:55;23.30;99.90
22742;DHT22;11538;48.884;8.696;2023-06-14T08:26:22;23.50;99.90
22742;DHT22;11538;48.884;8.696;2023-06-14T08:28:49;23.60;99.90
22742;DHT22;11538;48.884;8.696;2023-06-14T08:31:16;23.80;99.90
22742;DHT22;11538;48.884;8.696;2023-06-14T08:33:43;23.90;99.90
22742;DHT22;11538;48.884;8.696;2023-06-14T08:36:10;24.00;99.90
22742;DHT22;11538;48.884;8.696;2023-06-14T08:38:39;24.20;99.90
22742;DHT22;11538;48.884;8.696;2023-06-14T08:41:06;24.30;99.90
22742;DHT22;11538;48.884;8.696;2023-06-14T08:43:34;24.40;99.90
22742;DHT22;11538;48.884;8.696;2023-06-14T08:46:03;24.60;99.90
22742;DHT22;11538;48.884;8.696;2023-06-14T08:48:33;24.70;99.90
22742;DHT22;11538;48.884;8.696;2023-06-14T08:51:00;24.90;99.90
22742;DHT22;11538;48.884;8.696;2023-06-14T08:53:31;25.10;99.90
22742;DHT22;11538;48.884;8.696;2023-06-14T08:56:05;25.20;99.90
22742;DHT22;11538;48.884;8.696;2023-06-14T08:58:32;25.40;99.90
22742;DHT22;11538;48.884;8.696;2023-06-14T09:01:01;25.50;99.90
22742;DHT22;11538;48.884;8.696;2023-06-14T09:03:28;25.70;99.90
22742;DHT22;11538;48.884;8.696;2023-06-14T09:06:00;25.90;99.90
22742;DHT22;11538;48.884;8.696;2023-06-14T09:08:28;26.00;99.90
22742;DHT22;11538;48.884;8.696;2023-06-14T09:10:57;26.10;99.90
22742;DHT22;11538;48.884;8.696;2023-06-14T09:13:24;26.30;99.90
22742;DHT22;11538;48.884;8.696;2023-06-14T09:15:57;26.40;99.90
22742;DHT22;11538;48.884;8.696;2023-06-14T09:18:36;26.50;99.90
22742;DHT22;11538;48.884;8.696;2023-06-14T09:21:11;26.70;99.90
22742;DHT22;11538;48.884;8.696;2023-06-14T09:23:40;26.90;99.90
22742;DHT22;11538;48.884;8.696;2023-06-14T09:26:10;27.00;99.90
22742;DHT22;11538;48.884;8.696;2023-06-14T09:28:42;27.20;99.90
22742;DHT22;11538;48.884;8.696;2023-06-14T09:31:14;27.30;99.90
22742;DHT22;11538;48.884;8.696;2023-06-14T09:33:46;27.40;99.90
22742;DHT22;11538;48.884;8.696;2023-06-14T09:36:21;27.60;99.90
22742;DHT22;11538;48.884;8.696;2023-06-14T09:39:02;27.80;99.90
22742;DHT22;11538;48.884;8.696;2023-06-14T09:41:35;27.80;99.90
22742;DHT22;11538;48.884;8.696;2023-06-14T09:44:08;27.90;99.90
22742;DHT22;11538;48.884;8.696;2023-06-14T09:46:43;27.90;99.90
22742;DHT22;11538;48.884;8.696;2023-06-14T09:49:11;28.00;99.90
22742;DHT22;11538;48.884;8.696;2023-06-14T09:51:45;28.00;99.90
22742;DHT22;11538;48.884;8.696;2023-06-14T09:54:20;28.10;99.90
22742;DHT22;11538;48.884;8.696;2023-06-14T09:56:49;28.20;99.90
22742;DHT22;11538;48.884;8.696;2023-06-14T09:59:24;28.20;99.90
22742;DHT22;11538;48.884;8.696;2023-06-14T10:02:14;28.40;99.90
22742;DHT22;11538;48.884;8.696;2023-06-14T10:04:56;28.50;99.90
22742;DHT22;11538;48.884;8.696;2023-06-14T10:07:30;28.60;99.90
22742;DHT22;11538;48.884;8.696;2023-06-14T10:10:01;28.70;99.90
22742;DHT22;11538;48.884;8.696;2023-06-14T10:12:28;28.90;99.90
22742;DHT22;11538;48.884;8.696;2023-06-14T10:14:56;29.00;99.90
22742;DHT22;11538;48.884;8.696;2023-06-14T10:17:42;29.10;99.90
22742;DHT22;11538;48.884;8.696;2023-06-14T10:23:03;29.40;99.90
22742;DHT22;11538;48.884;8.696;2023-06-14T10:25:34;29.60;99.90
22742;DHT22;11538;48.884;8.696;2023-06-14T10:28:19;29.70;99.90
22742;DHT22;11538;48.884;8.696;2023-06-14T10:31:09;29.80;99.90
22742;DHT22;11538;48.884;8.696;2023-06-14T10:33:59;29.90;99.90
22742;DHT22;11538;48.884;8.696;2023-06-14T10:36:29;29.90;99.90
22742;DHT22;11538;48.884;8.696;2023-06-14T10:39:06;29.80;99.90
22742;DHT22;11538;48.884;8.696;2023-06-14T10:41:54;29.70;99.90
22742;DHT22;11538;48.884;8.696;2023-06-14T10:46:52;29.70;99.90
22742;DHT22;11538;48.884;8.696;2023-06-14T10:49:20;29.90;99.90
22742;DHT22;11538;48.884;8.696;2023-06-14T10:52:06;30.10;99.90
22742;DHT22;11538;48.884;8.696;2023-06-14T10:54:38;30.30;99.90
22742;DHT22;11538;48.884;8.696;2023-06-14T10:57:06;30.40;99.90
22742;DHT22;11538;48.884;8.696;2023-06-14T10:59:37;30.30;99.90
22742;DHT22;11538;48.884;8.696;2023-06-14T11:02:20;30.10;99.90
22742;DHT22;11538;48.884;8.696;2023-06-14T11:04:52;29.90;99.90
22742;DHT22;11538;48.884;8.696;2023-06-14T11:12:54;29.70;99.90
22742;DHT22;11538;48.884;8.696;2023-06-14T11:15:33;29.70;99.90
22742;DHT22;11538;48.884;8.696;2023-06-14T11:18:03;29.80;99.90
22742;DHT22;11538;48.884;8.696;2023-06-14T11:20:34;30.00;99.90
22742;DHT22;11538;48.884;8.696;2023-06-14T11:23:04;30.30;99.90
22742;DHT22;11538;48.884;8.696;2023-06-14T11:25:31;30.60;99.90
22742;DHT22;11538;48.884;8.696;2023-06-14T11:27:59;30.90;99.90
22742;DHT22;11538;48.884;8.696;2023-06-14T11:30:26;31.10;99.90
22742;DHT22;11538;48.884;8.696;2023-06-14T11:32:54;31.40;99.90
22742;DHT22;11538;48.884;8.696;2023-06-14T11:35:25;31.70;99.90
22742;DHT22;11538;48.884;8.696;2023-06-14T11:37:54;32.00;99.90
22742;DHT22;11538;48.884;8.696;2023-06-14T11:40:24;32.40;99.90
22742;DHT22;11538;48.884;8.696;2023-06-14T11:43:02;32.60;99.90
22742;DHT22;11538;48.884;8.696;2023-06-14T11:45:30;32.70;99.90
22742;DHT22;11538;48.884;8.696;2023-06-14T11:48:00;32.90;99.90
22742;DHT22;11538;48.884;8.696;2023-06-14T11:50:28;33.00;99.90
22742;DHT22;11538;48.884;8.696;2023-06-14T11:52:56;33.20;99.90
22742;DHT22;11538;48.884;8.696;2023-06-14T11:55:26;33.50;99.90
22742;DHT22;11538;48.884;8.696;2023-06-14T11:57:54;33.70;99.90
22742;DHT22;11538;48.884;8.696;2023-06-14T12:00:28;33.70;99.90
22742;DHT22;11538;48.884;8.696;2023-06-14T12:02:56;33.90;99.90
22742;DHT22;11538;48.884;8.696;2023-06-14T12:05:24;34.00;99.90
22742;DHT22;11538;48.884;8.696;2023-06-14T12:08:01;34.20;99.90
22742;DHT22;11538;48.884;8.696;2023-06-14T12:10:30;34.30;99.90
22742;DHT22;11538;48.884;8.696;2023-06-14T12:13:06;34.40;99.90
22742;DHT22;11538;48.884;8.696;2023-06-14T12:15:33;34.50;99.90
22742;DHT22;11538;48.884;8.696;2023-06-14T12:18:01;34.70;99.90
22742;DHT22;11538;48.884;8.696;2023-06-14T12:20:31;34.80;99.90
22742;DHT22;11538;48.884;8.696;2023-06-14T12:22:59;34.70;99.90
22742;DHT22;11538;48.884;8.696;2023-06-14T12:25:33;34.70;99.90
22742;DHT22;11538;48.884;8.696;2023-06-14T12:28:07;34.90;99.90
22742;DHT22;11538;48.884;8.696;2023-06-14T12:30:36;35.20;99.90
22742;DHT22;11538;48.884;8.696;2023-06-14T12:33:04;35.40;99.90
22742;DHT22;11538;48.884;8.696;2023-06-14T12:35:33;35.60;99.90
22742;DHT22;11538;48.884;8.696;2023-06-14T12:38:00;35.70;99.90
22742;DHT22;11538;48.884;8.696;2023-06-14T12:40:27;35.90;99.90
22742;DHT22;11538;48.884;8.696;2023-06-14T12:42:54;35.90;99.90
22742;DHT22;11538;48.884;8.696;2023-06-14T12:45:21;35.90;99.90
22742;DHT22;11538;48.884;8.696;2023-06-14T12:47:47;36.00;99.90
22742;DHT22;11538;48.884;8.696;2023-06-14T12:50:15;36.00;99.90
22742;DHT22;11538;48.884;8.696;2023-06-14T12:52:42;36.00;99.90
22742;DHT22;11538;48.884;8.696;2023-06-14T12:55:09;35.90;99.90
22742;DHT22;11538;48.884;8.696;2023-06-14T12:57:36;35.40;99.90
22742;DHT22;11538;48.884;8.696;2023-06-14T13:00:05;34.90;99.90
22742;DHT22;11538;48.884;8.696;2023-06-14T13:02:34;34.70;99.90
22742;DHT22;11538;48.884;8.696;2023-06-14T13:05:01;34.90;99.90
22742;DHT22;11538;48.884;8.696;2023-06-14T13:07:30;35.00;99.90
22742;DHT22;11538;48.884;8.696;2023-06-14T13:09:57;35.20;99.90
22742;DHT22;11538;48.884;8.696;2023-06-14T13:12:24;35.50;99.90
22742;DHT22;11538;48.884;8.696;2023-06-14T13:14:51;35.60;99.90
22742;DHT22;11538;48.884;8.696;2023-06-14T13:17:18;35.60;99.90
22742;DHT22;11538;48.884;8.696;2023-06-14T13:19:44;35.60;99.90
22742;DHT22;11538;48.884;8.696;2023-06-14T13:22:12;35.80;99.90
22742;DHT22;11538;48.884;8.696;2023-06-14T13:24:38;35.80;99.90
22742;DHT22;11538;48.884;8.696;2023-06-14T13:27:06;35.90;99.90
22742;DHT22;11538;48.884;8.696;2023-06-14T13:29:33;35.90;99.90
22742;DHT22;11538;48.884;8.696;2023-06-14T13:32:03;36.10;99.90
22742;DHT22;11538;48.884;8.696;2023-06-14T13:34:30;36.20;99.90
22742;DHT22;11538;48.884;8.696;2023-06-14T13:36:57;35.80;99.90
22742;DHT22;11538;48.884;8.696;2023-06-14T13:39:26;35.20;99.90
22742;DHT22;11538;48.884;8.696;2023-06-14T13:41:53;34.60;99.90
22742;DHT22;11538;48.884;8.696;2023-06-14T13:44:20;34.20;99.90
22742;DHT22;11538;48.884;8.696;2023-06-14T13:47:05;34.30;99.90
22742;DHT22;11538;48.884;8.696;2023-06-14T13:49:50;34.50;99.90
22742;DHT22;11538;48.884;8.696;2023-06-14T13:52:34;34.60;99.90
22742;DHT22;11538;48.884;8.696;2023-06-14T13:55:19;34.70;99.90
22742;DHT22;11538;48.884;8.696;2023-06-14T13:58:03;35.00;99.90
22742;DHT22;11538;48.884;8.696;2023-06-14T14:00:48;35.20;99.90
22742;DHT22;11538;48.884;8.696;2023-06-14T14:03:33;35.20;99.90
22742;DHT22;11538;48.884;8.696;2023-06-14T14:06:18;35.20;99.90
22742;DHT22;11538;48.884;8.696;2023-06-14T14:09:02;34.90;99.90
22742;DHT22;11538;48.884;8.696;2023-06-14T14:11:29;34.50;99.90
22742;DHT22;11538;48.884;8.696;2023-06-14T14:13:58;34.30;99.90
22742;DHT22;11538;48.884;8.696;2023-06-14T14:16:26;34.30;99.90
22742;DHT22;11538;48.884;8.696;2023-06-14T14:18:52;34.30;99.90
22742;DHT22;11538;48.884;8.696;2023-06-14T14:21:19;34.20;99.90
22742;DHT22;11538;48.884;8.696;2023-06-14T14:23:46;34.20;99.90
22742;DHT22;11538;48.884;8.696;2023-06-14T14:26:30;34.30;99.90
22742;DHT22;11538;48.884;8.696;2023-06-14T14:29:16;34.30;99.90
22742;DHT22;11538;48.884;8.696;2023-06-14T14:31:43;34.40;99.90
22742;DHT22;11538;48.884;8.696;2023-06-14T14:34:11;34.40;99.90
22742;DHT22;11538;48.884;8.696;2023-06-14T14:36:38;34.30;99.90
22742;DHT22;11538;48.884;8.696;2023-06-14T14:39:09;34.20;99.90
22742;DHT22;11538;48.884;8.696;2023-06-14T14:41:36;34.20;99.90
22742;DHT22;11538;48.884;8.696;2023-06-14T14:44:08;34.20;99.90
22742;DHT22;11538;48.884;8.696;2023-06-14T14:46:35;34.00;99.90
22742;DHT22;11538;48.884;8.696;2023-06-14T14:49:02;33.90;99.90
22742;DHT22;11538;48.884;8.696;2023-06-14T14:51:29;33.70;99.90
22742;DHT22;11538;48.884;8.696;2023-06-14T14:53:56;33.60;99.90
22742;DHT22;11538;48.884;8.696;2023-06-14T14:56:23;33.60;99.90
22742;DHT22;11538;48.884;8.696;2023-06-14T14:58:50;33.50;99.90
22742;DHT22;11538;48.884;8.696;2023-06-14T15:01:17;33.50;99.90
22742;DHT22;11538;48.884;8.696;2023-06-14T15:03:45;33.50;99.90
22742;DHT22;11538;48.884;8.696;2023-06-14T15:06:15;33.50;99.90
22742;DHT22;11538;48.884;8.696;2023-06-14T15:08:42;33.40;99.90
22742;DHT22;11538;48.884;8.696;2023-06-14T15:11:09;33.30;99.90
22742;DHT22;11538;48.884;8.696;2023-06-14T15:13:37;33.20;99.90
22742;DHT22;11538;48.884;8.696;2023-06-14T15:16:04;33.00;99.90
22742;DHT22;11538;48.884;8.696;2023-06-14T15:18:31;32.90;99.90
22742;DHT22;11538;48.884;8.696;2023-06-14T15:20:58;32.80;99.90
22742;DHT22;11538;48.884;8.696;2023-06-14T15:23:25;32.70;99.90
22742;DHT22;11538;48.884;8.696;2023-06-14T15:25:52;32.60;99.90
22742;DHT22;11538;48.884;8.696;2023-06-14T15:28:18;32.60;99.90
22742;DHT22;11538;48.884;8.696;2023-06-14T15:30:46;32.50;99.90
22742;DHT22;11538;48.884;8.696;2023-06-14T15:33:13;32.40;99.90
22742;DHT22;11538;48.884;8.696;2023-06-14T15:35:39;32.30;99.90
22742;DHT22;11538;48.884;8.696;2023-06-14T15:38:07;32.20;99.90
22742;DHT22;11538;48.884;8.696;2023-06-14T15:40:34;32.00;99.90
22742;DHT22;11538;48.884;8.696;2023-06-14T15:43:01;31.90;99.90
22742;DHT22;11538;48.884;8.696;2023-06-14T15:45:28;31.80;99.90
22742;DHT22;11538;48.884;8.696;2023-06-14T15:47:56;31.80;99.90
22742;DHT22;11538;48.884;8.696;2023-06-14T15:50:24;31.60;99.90
22742;DHT22;11538;48.884;8.696;2023-06-14T15:52:51;31.50;99.90
22742;DHT22;11538;48.884;8.696;2023-06-14T15:55:18;31.40;99.90